createdAt,value
2018-12-13T00:00:24.088Z,102038.28
2018-12-13T00:02:54.842Z,102042.14
2018-12-13T00:05:25.758Z,102034.86
2018-12-13T00:07:54.772Z,102031.91
2018-12-13T00:10:23.563Z,102027.20
2018-12-13T00:12:54.502Z,102029.85
2018-12-13T00:15:26.439Z,102032.90
2018-12-13T00:17:55.227Z,102026.05
2018-12-13T00:20:24.059Z,102029.55
2018-12-13T00:22:52.913Z,102030.41
2018-12-13T00:25:22.010Z,102031.31
2018-12-13T00:27:50.888Z,102021.48
2018-12-13T00:30:19.750Z,102020.64
2018-12-13T00:32:48.556Z,102016.77
2018-12-13T00:35:17.507Z,102014.67
2018-12-13T00:37:46.284Z,102020.70
2018-12-13T00:40:15.183Z,102022.84
2018-12-13T00:42:43.960Z,102017.28
2018-12-13T00:45:12.952Z,102022.89
2018-12-13T00:47:41.734Z,102016.45
2018-12-13T00:50:10.926Z,102019.86
2018-12-13T00:52:39.769Z,102013.88
2018-12-13T00:55:08.664Z,102011.70
2018-12-13T00:57:37.468Z,102005.70
2018-12-13T01:00:07.874Z,102001.84
2018-12-13T01:02:36.958Z,102010.83
2018-12-13T01:05:05.964Z,102004.36
2018-12-13T01:07:35.010Z,102004.77
2018-12-13T01:10:04.414Z,102009.92
2018-12-13T01:12:34.250Z,102010.79
2018-12-13T01:15:03.222Z,102007.35
2018-12-13T01:17:33.804Z,102011.64
2018-12-13T01:20:05.840Z,102011.66
2018-12-13T01:22:34.693Z,102011.69
2018-12-13T01:25:03.623Z,102009.52
2018-12-13T01:27:32.412Z,102006.10
2018-12-13T01:30:01.415Z,102002.26
2018-12-13T01:32:30.348Z,101999.26
2018-12-13T01:34:59.070Z,102001.38
2018-12-13T01:37:27.790Z,101997.52
2018-12-13T01:39:56.616Z,102000.95
2018-12-13T01:42:25.435Z,101996.66
2018-12-13T01:44:54.171Z,101997.52
2018-12-13T01:47:22.906Z,101989.37
2018-12-13T01:49:51.932Z,101985.99
2018-12-13T01:52:20.664Z,101986.44
2018-12-13T01:54:49.393Z,101986.43
2018-12-13T01:57:18.168Z,101982.59
2018-12-13T01:59:46.986Z,101977.94
2018-12-13T02:02:15.726Z,101977.52
2018-12-13T02:04:44.687Z,101976.69
2018-12-13T02:07:13.522Z,101971.15
2018-12-13T02:09:42.512Z,101963.89
2018-12-13T02:12:11.762Z,101968.61
2018-12-13T02:14:40.535Z,101965.64
2018-12-13T02:17:11.467Z,101954.94
2018-12-13T02:19:40.286Z,101954.53
2018-12-13T02:22:09.315Z,101955.83
2018-12-13T02:24:38.742Z,101958.87
2018-12-13T02:27:07.596Z,101957.59
2018-12-13T02:29:36.432Z,101958.47
2018-12-13T02:32:05.521Z,101954.63
2018-12-13T02:34:34.356Z,101955.07
2018-12-13T02:37:06.181Z,101959.37
2018-12-13T02:39:34.147Z,101957.70
2018-12-13T02:42:02.955Z,101953.88
2018-12-13T02:44:31.671Z,101951.77
2018-12-13T02:47:00.400Z,101946.66
2018-12-13T02:49:29.550Z,101949.69
2018-12-13T02:51:58.431Z,101953.13
2018-12-13T02:54:27.171Z,101947.56
2018-12-13T02:56:55.939Z,101942.44
2018-12-13T02:59:31.402Z,101943.31
2018-12-13T03:02:01.031Z,101940.34
2018-12-13T03:04:30.940Z,101935.64
2018-12-13T03:06:59.935Z,101936.08
2018-12-13T03:09:29.019Z,101939.49
2018-12-13T03:11:57.832Z,101936.03
2018-12-13T03:14:26.545Z,101935.63
2018-12-13T03:16:55.678Z,101930.49
2018-12-13T03:21:58.562Z,101928.78
2018-12-13T03:24:27.450Z,101924.11
2018-12-13T03:26:56.344Z,101923.67
2018-12-13T03:29:25.096Z,101916.86
2018-12-13T03:31:54.449Z,101910.86
2018-12-13T03:34:23.245Z,101909.17
2018-12-13T03:36:52.035Z,101907.05
2018-12-13T03:39:21.092Z,101907.05
2018-12-13T03:41:50.055Z,101908.78
2018-12-13T03:44:18.847Z,101904.95
2018-12-13T03:46:47.796Z,101910.06
2018-12-13T03:49:16.732Z,101899.35
2018-12-13T03:51:45.451Z,101907.89
2018-12-13T03:54:14.335Z,101907.06
2018-12-13T03:56:43.387Z,101903.58
2018-12-13T03:59:12.181Z,101909.57
2018-12-13T04:01:41.290Z,101900.16
2018-12-13T04:04:10.102Z,101901.45
2018-12-13T04:06:38.931Z,101903.63
2018-12-13T04:09:07.983Z,101902.34
2018-12-13T04:11:36.890Z,101892.06
2018-12-13T04:14:05.805Z,101900.17
2018-12-13T04:16:34.584Z,101891.59
2018-12-13T04:19:03.444Z,101891.56
2018-12-13T04:21:32.179Z,101892.42
2018-12-13T04:24:01.051Z,101891.14
2018-12-13T04:26:29.982Z,101881.74
2018-12-13T04:28:58.715Z,101883.90
2018-12-13T04:31:27.883Z,101886.48
2018-12-13T04:33:56.574Z,101883.90
2018-12-13T04:36:25.459Z,101880.50
2018-12-13T04:38:54.344Z,101882.20
2018-12-13T04:41:23.146Z,101884.78
2018-12-13T04:43:51.954Z,101882.66
2018-12-13T04:46:20.826Z,101889.48
2018-12-13T04:48:49.612Z,101883.50
2018-12-13T04:51:18.436Z,101880.13
2018-12-13T04:54:05.928Z,101878.40
2018-12-13T04:56:34.660Z,101880.11
2018-12-13T04:59:04.489Z,101879.66
2018-12-13T05:01:33.234Z,101874.96
2018-12-13T05:04:03.213Z,101874.97
2018-12-13T05:06:31.943Z,101875.39
2018-12-13T05:09:01.835Z,101873.28
2018-12-13T05:11:32.500Z,101872.81
2018-12-13T05:14:01.418Z,101872.81
2018-12-13T05:16:30.225Z,101872.81
2018-12-13T05:18:59.086Z,101868.94
2018-12-13T05:21:28.179Z,101878.38
2018-12-13T05:23:57.096Z,101879.64
2018-12-13T05:26:25.897Z,101879.20
2018-12-13T05:28:54.631Z,101876.64
2018-12-13T05:31:23.512Z,101877.48
2018-12-13T05:33:52.335Z,101874.94
2018-12-13T05:36:22.126Z,101877.94
2018-12-13T05:38:51.154Z,101877.54
2018-12-13T05:41:20.141Z,101882.69
2018-12-13T05:43:53.072Z,101884.84
2018-12-13T05:46:22.404Z,101881.42
2018-12-13T05:48:51.303Z,101883.17
2018-12-13T05:51:20.110Z,101885.72
2018-12-13T05:53:49.070Z,101885.30
2018-12-13T05:56:17.891Z,101889.19
2018-12-13T05:58:46.684Z,101889.20
2018-12-13T06:01:15.477Z,101891.35
2018-12-13T06:03:44.416Z,101892.66
2018-12-13T06:06:13.616Z,101880.63
2018-12-13T06:08:42.337Z,101887.08
2018-12-13T06:11:11.132Z,101886.23
2018-12-13T06:13:39.987Z,101884.97
2018-12-13T06:16:09.139Z,101886.30
2018-12-13T06:18:37.968Z,101887.15
2018-12-13T06:21:11.854Z,101888.03
2018-12-13T06:23:37.740Z,101885.45
2018-12-13T06:26:06.479Z,101886.74
2018-12-13T06:28:35.278Z,101883.79
2018-12-13T06:31:04.907Z,101887.64
2018-12-13T06:33:33.649Z,101888.94
2018-12-13T06:36:02.461Z,101889.81
2018-12-13T06:38:31.255Z,101893.27
2018-12-13T06:41:00.005Z,101894.19
2018-12-13T06:43:28.722Z,101892.46
2018-12-13T06:45:57.524Z,101884.73
2018-12-13T06:48:26.307Z,101883.45
2018-12-13T06:50:55.186Z,101885.17
2018-12-13T06:53:23.991Z,101889.06
2018-12-13T06:55:52.878Z,101887.78
2018-12-13T06:58:21.685Z,101889.06
2018-12-13T07:00:50.502Z,101895.08
2018-12-13T07:03:19.527Z,101891.69
2018-12-13T07:05:48.258Z,101895.98
2018-12-13T07:08:17.203Z,101893.41
2018-12-13T07:10:46.119Z,101889.54
2018-12-13T07:13:15.119Z,101893.00
2018-12-13T07:15:43.843Z,101893.44
2018-12-13T07:18:12.643Z,101891.73
2018-12-13T07:20:41.375Z,101884.05
2018-12-13T07:23:10.143Z,101885.78
2018-12-13T07:25:38.917Z,101896.08
2018-12-13T07:28:07.769Z,101887.95
2018-12-13T07:30:36.595Z,101898.64
2018-12-13T07:33:05.732Z,101900.81
2018-12-13T07:35:34.530Z,101896.95
2018-12-13T07:38:03.728Z,101905.50
2018-12-13T07:40:32.495Z,101905.06
2018-12-13T07:43:01.788Z,101902.94
2018-12-13T07:45:30.665Z,101898.66
2018-12-13T07:47:59.840Z,101902.09
2018-12-13T07:50:28.787Z,101908.91
2018-12-13T07:52:57.580Z,101914.06
2018-12-13T07:55:26.515Z,101913.22
2018-12-13T07:57:55.242Z,101912.38
2018-12-13T08:00:24.088Z,101914.91
2018-12-13T08:02:52.948Z,101912.34
2018-12-13T08:05:21.720Z,101914.03
2018-12-13T08:07:50.679Z,101917.01
2018-12-13T08:10:19.492Z,101905.44
2018-12-13T08:12:48.303Z,101898.59
2018-12-13T08:15:17.457Z,101900.73
2018-12-13T08:17:46.682Z,101899.84
2018-12-13T08:20:18.473Z,101894.31
2018-12-13T08:22:47.324Z,101896.46
2018-12-13T08:25:16.358Z,101898.59
2018-12-13T08:27:45.248Z,101895.16
2018-12-13T08:30:14.071Z,101890.43
2018-12-13T08:32:42.928Z,101890.41
2018-12-13T08:35:11.850Z,101897.68
2018-12-13T08:37:40.788Z,101892.11
2018-12-13T08:40:09.657Z,101893.39
2018-12-13T08:42:38.519Z,101892.95
2018-12-13T08:45:07.519Z,101899.39
2018-12-13T08:47:36.347Z,101899.39
2018-12-13T08:50:05.504Z,101896.84
2018-12-13T08:52:34.995Z,101899.84
2018-12-13T08:55:05.025Z,101904.13
2018-12-13T08:57:34.947Z,101898.53
2018-12-13T09:00:07.019Z,101898.55
2018-12-13T09:02:37.389Z,101899.78
2018-12-13T09:05:07.078Z,101901.05
2018-12-13T09:07:36.010Z,101895.47
2018-12-13T09:10:05.411Z,101904.89
2018-12-13T09:12:34.264Z,101901.88
2018-12-13T09:15:03.142Z,101907.83
2018-12-13T09:17:31.990Z,101902.69
2018-12-13T09:20:00.915Z,101904.39
2018-12-13T09:22:31.378Z,101907.81
2018-12-13T09:25:00.126Z,101901.77
2018-12-13T09:27:28.922Z,101906.88
2018-12-13T09:29:57.697Z,101902.56
2018-12-13T09:32:26.424Z,101907.69
2018-12-13T09:34:55.416Z,101907.19
2018-12-13T09:37:24.413Z,101909.27
2018-12-13T09:39:53.129Z,101908.81
2018-12-13T09:42:22.170Z,101907.09
2018-12-13T09:44:51.395Z,101908.34
2018-12-13T09:47:20.429Z,101906.60
2018-12-13T09:49:49.373Z,101909.59
2018-12-13T09:52:18.169Z,101909.08
2018-12-13T09:54:47.050Z,101915.90
2018-12-13T09:57:22.423Z,101908.17
2018-12-13T09:59:51.172Z,101913.71
2018-12-13T10:02:19.898Z,101917.52
2018-12-13T10:04:48.668Z,101911.87
2018-12-13T10:07:17.476Z,101918.72
2018-12-13T10:09:46.242Z,101913.50
2018-12-13T10:12:15.133Z,101911.31
2018-12-13T10:14:43.889Z,101902.69
2018-12-13T10:17:12.685Z,101905.66
2018-12-13T10:19:41.400Z,101899.58
2018-12-13T10:22:11.885Z,101896.51
2018-12-13T10:24:41.162Z,101885.34
2018-12-13T10:27:09.982Z,101886.58
2018-12-13T10:29:40.954Z,101887.36
2018-12-13T10:32:09.991Z,101887.73
2018-12-13T10:34:38.923Z,101879.05
2018-12-13T10:37:07.665Z,101878.58
2018-12-13T10:39:36.452Z,101881.11
2018-12-13T10:42:05.302Z,101872.89
2018-12-13T10:44:36.182Z,101873.25
2018-12-13T10:47:05.540Z,101870.61
2018-12-13T10:49:34.763Z,101865.44
2018-12-13T10:52:03.644Z,101863.66
2018-12-13T10:54:32.466Z,101862.72
2018-12-13T10:57:01.263Z,101865.20
2018-12-13T10:59:30.197Z,101862.52
2018-12-13T11:02:02.331Z,101859.84
2018-12-13T11:04:31.163Z,101859.81
2018-12-13T11:07:00.234Z,101852.84
2018-12-13T11:09:30.083Z,101857.12
2018-12-13T11:12:00.747Z,101854.53
2018-12-13T11:14:29.617Z,101854.08
2018-12-13T11:16:58.344Z,101848.39
2018-12-13T11:19:27.211Z,101846.64
2018-12-13T11:21:56.199Z,101841.02
2018-12-13T11:24:24.920Z,101834.64
2018-12-13T11:26:57.046Z,101829.81
2018-12-13T11:29:37.052Z,101831.89
2018-12-13T11:32:05.905Z,101825.41
2018-12-13T11:34:34.627Z,101821.02
2018-12-13T11:37:03.416Z,101813.20
2018-12-13T11:39:32.370Z,101812.30
2018-12-13T11:42:01.107Z,101806.33
2018-12-13T11:44:30.031Z,101804.06
2018-12-13T11:46:58.747Z,101795.82
2018-12-13T11:49:27.794Z,101797.83
2018-12-13T11:51:56.771Z,101792.27
2018-12-13T11:54:40.169Z,101788.76
2018-12-13T11:57:09.191Z,101791.38
2018-12-13T11:59:38.046Z,101784.10
2018-12-13T12:02:07.282Z,101780.23
2018-12-13T12:04:36.006Z,101785.03
2018-12-13T12:07:04.938Z,101786.69
2018-12-13T12:09:33.867Z,101778.12
2018-12-13T12:12:02.737Z,101783.64
2018-12-13T12:14:31.827Z,101784.81
2018-12-13T12:17:01.567Z,101785.20
2018-12-13T12:19:30.744Z,101780.91
2018-12-13T12:21:59.655Z,101780.12
2018-12-13T12:24:28.419Z,101778.28
2018-12-13T12:26:57.183Z,101767.88
2018-12-13T12:29:26.031Z,101764.33
2018-12-13T12:31:54.834Z,101766.87
2018-12-13T12:34:23.786Z,101760.84
2018-12-13T12:36:52.624Z,101765.58
2018-12-13T12:39:21.367Z,101766.91
2018-12-13T12:41:50.110Z,101764.71
2018-12-13T12:44:18.854Z,101768.03
2018-12-13T12:46:47.891Z,101761.97
2018-12-13T12:49:18.555Z,101770.58
2018-12-13T12:51:47.563Z,101764.52
2018-12-13T12:54:16.336Z,101760.64
2018-12-13T12:56:45.103Z,101761.93
2018-12-13T12:59:14.013Z,101762.28
2018-12-13T13:01:42.795Z,101767.44
2018-12-13T13:04:11.683Z,101760.25
2018-12-13T13:06:40.662Z,101758.53
2018-12-13T13:09:09.515Z,101760.30
2018-12-13T13:11:38.729Z,101752.54
2018-12-13T13:14:07.608Z,101758.61
2018-12-13T13:16:36.400Z,101750.98
2018-12-13T13:19:05.342Z,101753.91
2018-12-13T13:21:34.261Z,101755.08
2018-12-13T13:24:03.047Z,101755.95
2018-12-13T13:26:31.758Z,101758.06
2018-12-13T13:29:00.691Z,101756.30
2018-12-13T13:31:29.624Z,101754.14
2018-12-13T13:33:58.342Z,101760.52
2018-12-13T13:36:27.131Z,101761.33
2018-12-13T13:38:55.967Z,101758.75
2018-12-13T13:41:24.855Z,101751.83
2018-12-13T13:43:53.706Z,101763.45
2018-12-13T13:46:22.619Z,101767.75
2018-12-13T13:48:52.606Z,101764.27
2018-12-13T13:51:21.351Z,101763.84
2018-12-13T13:53:50.093Z,101771.97
2018-12-13T13:56:18.823Z,101761.69
2018-12-13T13:58:47.671Z,101768.61
2018-12-13T14:01:17.503Z,101766.93
2018-12-13T14:03:46.350Z,101762.97
2018-12-13T14:06:15.142Z,101762.98
2018-12-13T14:08:44.251Z,101765.64
2018-12-13T14:11:13.258Z,101758.28
2018-12-13T14:13:42.078Z,101752.37
2018-12-13T14:16:10.873Z,101760.59
2018-12-13T14:18:40.370Z,101755.01
2018-12-13T14:21:09.283Z,101756.25
2018-12-13T14:23:38.126Z,101754.53
2018-12-13T14:26:07.423Z,101754.58
2018-12-13T14:28:36.198Z,101752.34
2018-12-13T14:31:05.115Z,101751.95
2018-12-13T14:33:33.918Z,101749.45
2018-12-13T14:36:02.859Z,101746.05
2018-12-13T14:38:31.666Z,101753.02
2018-12-13T14:41:02.342Z,101755.52
2018-12-13T14:43:33.309Z,101755.59
2018-12-13T14:46:02.198Z,101759.08
2018-12-13T14:48:31.115Z,101752.27
2018-12-13T14:51:00.106Z,101750.67
2018-12-13T14:53:29.194Z,101751.61
2018-12-13T14:55:58.199Z,101753.38
2018-12-13T14:58:27.100Z,101749.42
2018-12-13T15:00:56.078Z,101751.50
2018-12-13T15:03:24.855Z,101753.33
2018-12-13T15:05:53.627Z,101750.79
2018-12-13T15:08:23.285Z,101744.22
2018-12-13T15:10:52.115Z,101742.97
2018-12-13T15:13:20.921Z,101748.95
2018-12-13T15:15:49.795Z,101749.81
2018-12-13T15:18:18.754Z,101746.80
2018-12-13T15:20:48.134Z,101746.34
2018-12-13T15:23:16.869Z,101752.31
2018-12-13T15:25:45.707Z,101752.31
2018-12-13T15:28:14.879Z,101762.60
2018-12-13T15:30:43.701Z,101760.37
2018-12-13T15:33:12.770Z,101752.79
2018-12-13T15:35:41.491Z,101763.58
2018-12-13T15:38:10.231Z,101764.52
2018-12-13T15:40:39.058Z,101771.05
2018-12-13T15:43:08.148Z,101767.57
2018-12-13T15:45:37.222Z,101765.10
2018-12-13T15:48:05.966Z,101766.03
2018-12-13T15:50:34.723Z,101769.13
2018-12-13T15:53:03.524Z,101763.11
2018-12-13T15:55:32.609Z,101762.28
2018-12-13T15:58:01.367Z,101769.55
2018-12-13T16:00:30.150Z,101763.64
2018-12-13T16:02:58.994Z,101764.97
2018-12-13T16:05:28.116Z,101765.83
2018-12-13T16:07:57.149Z,101765.01
2018-12-13T16:10:25.930Z,101770.56
2018-12-13T16:12:54.797Z,101770.09
2018-12-13T16:15:23.696Z,101774.83
2018-12-13T16:17:52.504Z,101767.91
2018-12-13T16:20:21.234Z,101768.84
2018-12-13T16:22:50.058Z,101769.31
2018-12-13T16:25:19.190Z,101766.27
2018-12-13T16:27:48.046Z,101758.02
2018-12-13T16:30:17.162Z,101759.30
2018-12-13T16:32:45.963Z,101758.05
2018-12-13T16:35:14.778Z,101753.01
2018-12-13T16:37:43.715Z,101763.75
2018-12-13T16:40:12.586Z,101758.95
2018-12-13T16:42:41.339Z,101760.23
2018-12-13T16:45:10.130Z,101760.70
2018-12-13T16:47:39.683Z,101753.91
2018-12-13T16:50:08.589Z,101756.09
2018-12-13T16:52:37.724Z,101758.67
2018-12-13T16:55:06.795Z,101756.09
2018-12-13T16:57:35.794Z,101750.86
2018-12-13T17:00:07.020Z,101742.69
2018-12-13T17:02:36.175Z,101749.96
2018-12-13T17:05:05.307Z,101756.02
2018-12-13T17:07:34.128Z,101745.30
2018-12-13T17:10:02.919Z,101747.38
2018-12-13T17:12:31.895Z,101753.47
2018-12-13T17:15:00.794Z,101753.44
2018-12-13T17:17:30.430Z,101749.96
2018-12-13T17:19:59.331Z,101753.83
2018-12-13T17:22:28.115Z,101752.07
2018-12-13T17:24:57.082Z,101753.44
2018-12-13T17:27:25.946Z,101754.66
2018-12-13T17:29:54.814Z,101755.05
2018-12-13T17:32:23.598Z,101754.14
2018-12-13T17:34:52.322Z,101751.09
2018-12-13T17:37:21.073Z,101751.09
2018-12-13T17:39:49.973Z,101748.55
2018-12-13T17:42:18.772Z,101748.27
2018-12-13T17:44:47.524Z,101748.31
2018-12-13T17:47:16.942Z,101750.00
2018-12-13T17:49:45.843Z,101747.88
2018-12-13T17:52:14.652Z,101745.80
2018-12-13T17:54:43.411Z,101754.02
2018-12-13T17:57:12.195Z,101746.34
2018-12-13T17:59:41.051Z,101750.28
2018-12-13T18:02:10.054Z,101752.40
2018-12-13T18:04:38.860Z,101752.83
2018-12-13T18:07:07.745Z,101743.84
2018-12-13T18:09:36.541Z,101747.67
2018-12-13T18:12:05.423Z,101747.67
2018-12-13T18:14:34.210Z,101750.28
2018-12-13T18:17:02.999Z,101742.55
2018-12-13T18:19:31.931Z,101742.55
2018-12-13T18:22:00.640Z,101742.08
2018-12-13T18:24:37.840Z,101745.55
2018-12-13T18:27:06.961Z,101739.14
2018-12-13T18:29:36.195Z,101744.77
2018-12-13T18:32:27.247Z,101739.25
2018-12-13T18:34:56.130Z,101728.08
2018-12-13T18:37:26.140Z,101731.48
2018-12-13T18:39:54.868Z,101734.45
2018-12-13T18:42:23.801Z,101731.87
2018-12-13T18:44:52.754Z,101744.38
2018-12-13T18:47:21.811Z,101738.39
2018-12-13T18:49:50.718Z,101742.30
2018-12-13T18:52:19.848Z,101738.03
2018-12-13T18:54:48.692Z,101740.58
2018-12-13T18:57:18.985Z,101742.76
2018-12-13T18:59:48.822Z,101741.94
2018-12-13T19:02:17.811Z,101745.41
2018-12-13T19:04:46.801Z,101746.20
2018-12-13T19:07:15.890Z,101744.38
2018-12-13T19:09:44.931Z,101735.84
2018-12-13T19:12:13.775Z,101744.77
2018-12-13T19:14:42.846Z,101745.63
2018-12-13T19:17:11.834Z,101748.74
2018-12-13T19:19:40.772Z,101756.08
2018-12-13T19:22:09.807Z,101770.66
2018-12-13T19:24:38.824Z,101764.22
2018-12-13T19:27:07.735Z,101766.43
2018-12-13T19:29:36.802Z,101770.73
2018-12-13T19:32:05.841Z,101770.69
2018-12-13T19:34:34.948Z,101759.05
2018-12-13T19:37:03.842Z,101756.91
2018-12-13T19:39:32.659Z,101758.13
2018-12-13T19:42:02.070Z,101758.13
2018-12-13T19:44:30.978Z,101753.80
2018-12-13T19:47:00.063Z,101755.19
2018-12-13T19:49:29.048Z,101756.08
2018-12-13T19:51:59.194Z,101765.57
2018-12-13T19:54:28.009Z,101779.29
2018-12-13T19:56:57.175Z,101788.34
2018-12-13T19:59:25.890Z,101785.80
2018-12-13T20:01:54.711Z,101785.41
2018-12-13T20:04:23.526Z,101792.65
2018-12-13T20:06:52.611Z,101794.43
2018-12-13T20:09:21.367Z,101795.26
2018-12-13T20:11:51.830Z,101791.39
2018-12-13T20:14:22.683Z,101797.02
2018-12-13T20:16:51.565Z,101803.82
2018-12-13T20:19:20.565Z,101802.96
2018-12-13T20:21:49.576Z,101804.25
2018-12-13T20:24:18.543Z,101808.52
2018-12-13T20:26:47.543Z,101811.46
2018-12-13T20:29:17.209Z,101813.11
2018-12-13T20:31:46.838Z,101812.69
2018-12-13T20:34:15.820Z,101814.47
2018-12-13T20:36:45.047Z,101821.38
2018-12-13T20:39:14.189Z,101814.90
2018-12-13T20:41:43.814Z,101812.38
2018-12-13T20:44:12.656Z,101824.88
2018-12-13T20:46:41.935Z,101821.47
2018-12-13T20:49:10.955Z,101816.91
2018-12-13T20:51:39.927Z,101821.63
2018-12-13T20:54:09.012Z,101822.03
2018-12-13T20:56:38.548Z,101820.34
2018-12-13T20:59:08.139Z,101819.15
2018-12-13T21:01:37.898Z,101821.72
2018-12-13T21:04:06.807Z,101827.73
2018-12-13T21:06:35.745Z,101821.36
2018-12-13T21:09:07.203Z,101815.38
2018-12-13T21:11:36.852Z,101816.27
2018-12-13T21:14:05.847Z,101816.23
2018-12-13T21:16:34.752Z,101814.94
2018-12-13T21:19:03.872Z,101818.02
2018-12-13T21:21:32.745Z,101812.45
2018-12-13T21:24:01.470Z,101807.27
2018-12-13T21:26:30.587Z,101811.53
2018-12-13T21:28:59.414Z,101808.50
2018-12-13T21:31:46.950Z,101808.07
2018-12-13T21:34:15.908Z,101805.92
2018-12-13T21:36:44.882Z,101808.93
2018-12-13T21:39:13.812Z,101815.38
2018-12-13T21:41:42.538Z,101810.67
2018-12-13T21:44:11.562Z,101815.38
2018-12-13T21:46:47.127Z,101809.33
2018-12-13T21:49:15.848Z,101807.98
2018-12-13T21:51:44.717Z,101812.27
2018-12-13T21:54:14.480Z,101809.23
2018-12-13T21:56:43.785Z,101801.09
2018-12-13T21:59:12.902Z,101795.15
2018-12-13T22:01:41.667Z,101801.13
2018-12-13T22:04:10.529Z,101801.50
2018-12-13T22:06:39.575Z,101802.33
2018-12-13T22:09:08.718Z,101802.30
2018-12-13T22:11:37.486Z,101803.55
2018-12-13T22:14:06.383Z,101803.59
2018-12-13T22:16:35.104Z,101801.10
2018-12-13T22:19:04.287Z,101799.45
2018-12-13T22:21:33.077Z,101808.07
2018-12-13T22:24:02.043Z,101808.09
2018-12-13T22:26:31.210Z,101808.12
2018-12-13T22:29:00.133Z,101810.25
2018-12-13T22:31:29.094Z,101815.00
2018-12-13T22:33:58.483Z,101814.17
2018-12-13T22:36:27.537Z,101813.72
2018-12-13T22:38:56.470Z,101821.08
2018-12-13T22:41:26.454Z,101818.95
2018-12-13T22:43:55.666Z,101818.53
2018-12-13T22:46:24.693Z,101821.05
2018-12-13T22:48:54.498Z,101815.92
2018-12-13T22:51:23.662Z,101821.10
2018-12-13T22:53:52.576Z,101818.06
2018-12-13T22:56:21.551Z,101820.67
2018-12-13T22:58:50.461Z,101827.55
2018-12-13T23:01:19.566Z,101820.22
2018-12-13T23:03:49.674Z,101826.23
2018-12-13T23:06:18.530Z,101820.25
2018-12-13T23:08:48.246Z,101818.59
2018-12-13T23:11:17.498Z,101822.45
2018-12-13T23:13:46.268Z,101819.87
2018-12-13T23:16:16.003Z,101820.33
2018-12-13T23:18:44.930Z,101814.81
2018-12-13T23:21:13.847Z,101820.30
2018-12-13T23:23:43.083Z,101816.84
2018-12-13T23:26:11.847Z,101814.63
2018-12-13T23:28:40.652Z,101812.02
2018-12-13T23:31:09.598Z,101808.98
2018-12-13T23:33:38.505Z,101806.84
2018-12-13T23:36:07.951Z,101805.67
2018-12-13T23:38:36.894Z,101808.31
2018-12-13T23:41:05.684Z,101805.73
2018-12-13T23:43:34.932Z,101804.41
2018-12-13T23:46:03.935Z,101809.05
2018-12-13T23:48:32.681Z,101808.19
2018-12-13T23:51:01.482Z,101818.04
2018-12-13T23:53:30.391Z,101812.52
2018-12-13T23:55:59.603Z,101815.03
2018-12-13T23:58:28.603Z,101817.58
